createdAt,value
2019-02-26T00:01:21.055Z,37.30
2019-02-26T00:05:38.798Z,37.30
2019-02-26T00:09:57.551Z,37.30
2019-02-26T00:14:17.720Z,37.60
2019-02-26T00:18:36.687Z,37.70
2019-02-26T00:22:55.752Z,37.60
2019-02-26T00:27:15.267Z,37.90
2019-02-26T00:31:34.894Z,37.80
2019-02-26T00:35:53.092Z,38.10
2019-02-26T00:40:12.356Z,38.00
2019-02-26T00:44:32.725Z,38.10
2019-02-26T00:48:51.529Z,38.10
2019-02-26T00:53:09.715Z,38.00
2019-02-26T00:57:29.460Z,38.10
2019-02-26T01:01:50.287Z,38.20
2019-02-26T01:06:08.301Z,38.20
2019-02-26T01:10:26.564Z,38.30
2019-02-26T01:14:46.354Z,38.60
2019-02-26T01:19:04.818Z,38.70
2019-02-26T01:23:24.255Z,38.60
2019-02-26T01:27:43.636Z,38.80
2019-02-26T01:32:02.646Z,38.70
2019-02-26T01:36:23.185Z,38.70
2019-02-26T01:40:43.618Z,39.00
2019-02-26T01:45:00.863Z,39.00
2019-02-26T01:49:21.618Z,39.00
2019-02-26T01:53:42.265Z,39.20
2019-02-26T01:58:00.503Z,39.30
2019-02-26T02:02:20.287Z,39.20
2019-02-26T02:06:39.195Z,39.40
2019-02-26T02:10:59.848Z,39.50
2019-02-26T02:15:21.628Z,39.50
2019-02-26T02:19:39.481Z,39.50
2019-02-26T02:23:57.659Z,39.60
2019-02-26T02:28:16.718Z,39.70
2019-02-26T02:32:35.878Z,39.70
2019-02-26T02:36:54.039Z,39.80
2019-02-26T02:41:13.084Z,40.00
2019-02-26T02:45:31.224Z,40.00
2019-02-26T02:49:49.708Z,40.00
2019-02-26T02:54:07.813Z,40.20
2019-02-26T02:58:26.165Z,40.00
2019-02-26T03:02:46.667Z,40.00
2019-02-26T03:07:05.345Z,40.20
2019-02-26T03:11:23.659Z,40.10
2019-02-26T03:15:41.884Z,40.30
2019-02-26T03:20:04.157Z,40.10
2019-02-26T03:24:23.485Z,40.30
2019-02-26T03:28:42.103Z,40.40
2019-02-26T03:33:04.477Z,40.30
2019-02-26T03:37:20.415Z,40.40
2019-02-26T03:41:39.083Z,40.50
2019-02-26T03:45:57.242Z,40.70
2019-02-26T03:50:16.501Z,40.50
2019-02-26T03:54:37.417Z,40.70
2019-02-26T03:58:59.577Z,40.90
2019-02-26T04:03:17.505Z,41.00
2019-02-26T04:07:36.142Z,41.10
2019-02-26T04:11:55.429Z,41.10
2019-02-26T04:16:13.629Z,41.10
2019-02-26T04:20:32.115Z,41.40
2019-02-26T04:24:52.239Z,41.40
2019-02-26T04:30:24.252Z,41.40
2019-02-26T04:35:21.317Z,41.50
2019-02-26T04:40:07.151Z,41.10
2019-02-26T04:45:33.390Z,41.40
2019-02-26T04:49:54.241Z,41.50
2019-02-26T04:54:17.485Z,41.70
2019-02-26T04:58:34.204Z,41.60
2019-02-26T05:02:52.232Z,41.40
2019-02-26T05:07:13.446Z,41.70
2019-02-26T05:11:32.683Z,41.80
2019-02-26T05:15:50.501Z,42.00
2019-02-26T05:20:12.296Z,42.00
2019-02-26T05:24:29.188Z,42.20
2019-02-26T05:28:51.535Z,42.20
2019-02-26T05:33:09.973Z,42.30
2019-02-26T05:37:29.181Z,42.50
2019-02-26T05:41:52.276Z,42.30
2019-02-26T05:46:08.188Z,42.40
2019-02-26T05:50:26.633Z,42.50
2019-02-26T05:54:45.227Z,42.50
2019-02-26T05:59:06.772Z,42.50
2019-02-26T06:03:23.698Z,42.60
2019-02-26T06:07:41.946Z,42.70
2019-02-26T06:11:59.995Z,42.60
2019-02-26T06:16:19.735Z,42.70
2019-02-26T06:20:39.815Z,42.90
2019-02-26T06:25:00.292Z,42.90
2019-02-26T06:29:22.265Z,42.90
2019-02-26T06:33:40.936Z,43.40
2019-02-26T06:38:01.976Z,43.40
2019-02-26T06:42:19.527Z,43.40
2019-02-26T06:46:38.303Z,43.50
2019-02-26T06:50:57.576Z,44.20
2019-02-26T06:55:16.536Z,43.60
2019-02-26T06:59:36.824Z,43.70
2019-02-26T07:03:56.164Z,43.70
2019-02-26T07:08:14.591Z,43.80
2019-02-26T07:12:33.129Z,43.70
2019-02-26T07:16:51.493Z,43.80
2019-02-26T07:21:09.598Z,43.80
2019-02-26T07:25:27.832Z,44.00
2019-02-26T07:29:47.936Z,44.20
2019-02-26T07:34:06.596Z,44.30
2019-02-26T07:38:27.093Z,44.40
2019-02-26T07:42:46.777Z,44.60
2019-02-26T07:47:06.717Z,44.70
2019-02-26T07:51:24.860Z,44.70
2019-02-26T07:55:43.438Z,44.60
2019-02-26T08:00:01.815Z,44.40
2019-02-26T08:04:19.998Z,44.40
2019-02-26T08:08:40.168Z,45.10
2019-02-26T08:12:59.431Z,44.60
2019-02-26T08:17:18.032Z,44.50
2019-02-26T08:21:36.340Z,44.70
2019-02-26T08:25:55.491Z,45.00
2019-02-26T08:30:20.635Z,45.00
2019-02-26T08:34:39.783Z,45.20
2019-02-26T08:38:57.335Z,48.20
2019-02-26T08:43:15.974Z,52.50
2019-02-26T08:47:34.648Z,54.90
2019-02-26T08:51:53.265Z,56.40
2019-02-26T08:56:11.617Z,54.10
2019-02-26T09:00:30.161Z,49.70
2019-02-26T09:04:48.443Z,47.00
2019-02-26T09:09:08.099Z,46.40
2019-02-26T09:13:26.532Z,47.70
2019-02-26T09:17:44.893Z,48.30
2019-02-26T09:22:03.247Z,47.80
2019-02-26T09:26:21.654Z,45.80
2019-02-26T09:30:40.815Z,44.90
2019-02-26T09:35:01.490Z,47.30
2019-02-26T09:39:19.525Z,50.20
2019-02-26T09:43:39.233Z,51.20
2019-02-26T09:47:58.415Z,50.00
2019-02-26T09:52:18.952Z,48.70
2019-02-26T09:56:36.553Z,49.00
2019-02-26T10:00:54.821Z,49.30
2019-02-26T10:05:17.722Z,50.10
2019-02-26T10:09:36.762Z,49.80
2019-02-26T10:13:54.364Z,49.20
2019-02-26T10:18:12.967Z,48.50
2019-02-26T10:22:33.206Z,47.90
2019-02-26T10:26:51.598Z,47.00
2019-02-26T10:31:09.864Z,47.20
2019-02-26T10:35:33.161Z,46.10
2019-02-26T10:39:50.220Z,44.90
2019-02-26T10:44:09.505Z,44.10
2019-02-26T10:48:28.060Z,43.00
2019-02-26T10:52:46.349Z,42.00
2019-02-26T10:57:07.683Z,41.40
2019-02-26T11:01:25.980Z,40.70
2019-02-26T11:05:48.338Z,40.40
2019-02-26T11:10:06.022Z,39.70
2019-02-26T11:14:24.621Z,39.00
2019-02-26T11:18:44.927Z,39.20
2019-02-26T11:23:04.141Z,39.00
2019-02-26T11:27:23.315Z,38.50
2019-02-26T11:31:44.782Z,37.80
2019-02-26T11:36:03.020Z,37.20
2019-02-26T11:40:24.869Z,36.80
2019-02-26T11:44:42.582Z,36.30
2019-02-26T11:49:01.247Z,36.00
2019-02-26T11:53:20.512Z,35.60
2019-02-26T11:57:39.897Z,35.00
2019-02-26T12:01:59.086Z,34.60
2019-02-26T12:06:18.403Z,33.70
2019-02-26T12:10:37.962Z,33.10
2019-02-26T12:14:56.885Z,32.00
2019-02-26T12:19:15.141Z,31.70
2019-02-26T12:23:34.475Z,31.60
2019-02-26T12:27:53.489Z,31.40
2019-02-26T12:32:11.810Z,31.30
2019-02-26T12:36:32.516Z,31.00
2019-02-26T12:40:53.455Z,30.40
2019-02-26T12:45:13.669Z,30.00
2019-02-26T12:49:35.015Z,29.90
2019-02-26T12:53:51.871Z,29.90
2019-02-26T12:58:11.259Z,29.70
2019-02-26T13:02:30.414Z,29.70
2019-02-26T13:06:51.792Z,29.50
2019-02-26T13:11:11.796Z,29.30
2019-02-26T13:15:28.625Z,29.40
2019-02-26T13:19:49.171Z,29.50
2019-02-26T13:24:12.359Z,29.70
2019-02-26T13:28:29.554Z,29.80
2019-02-26T13:32:56.021Z,29.80
2019-02-26T13:37:07.990Z,30.00
2019-02-26T13:45:46.354Z,29.90
2019-02-26T13:50:05.729Z,29.90
2019-02-26T13:54:23.925Z,30.00
2019-02-26T13:58:42.173Z,30.00
2019-02-26T14:03:00.647Z,30.10
2019-02-26T14:07:19.557Z,30.00
2019-02-26T14:11:37.981Z,30.00
2019-02-26T14:15:56.912Z,30.10
2019-02-26T14:20:15.599Z,30.20
2019-02-26T14:24:33.784Z,30.10
2019-02-26T14:28:52.373Z,30.10
2019-02-26T14:33:10.881Z,30.90
2019-02-26T14:37:29.317Z,30.40
2019-02-26T14:41:47.649Z,30.40
2019-02-26T14:46:05.924Z,30.40
2019-02-26T14:50:26.154Z,30.50
2019-02-26T14:54:44.074Z,30.50
2019-02-26T14:59:02.794Z,30.60
2019-02-26T15:03:21.014Z,30.60
2019-02-26T15:07:39.689Z,30.70
2019-02-26T15:11:57.712Z,30.70
2019-02-26T15:16:16.067Z,30.70
2019-02-26T15:20:34.245Z,30.80
2019-02-26T15:24:52.727Z,30.90
2019-02-26T15:29:11.104Z,31.00
2019-02-26T15:33:29.126Z,31.10
2019-02-26T15:37:47.353Z,31.10
2019-02-26T15:42:06.019Z,31.00
2019-02-26T15:46:24.391Z,31.00
2019-02-26T15:50:42.692Z,31.20
2019-02-26T15:55:00.990Z,31.10
2019-02-26T15:59:20.384Z,31.00
2019-02-26T16:03:38.820Z,31.10
2019-02-26T16:07:56.915Z,31.00
2019-02-26T16:12:15.179Z,31.10
2019-02-26T16:16:34.163Z,31.20
2019-02-26T16:20:52.469Z,31.30
2019-02-26T16:25:10.786Z,31.30
2019-02-26T16:29:32.839Z,32.00
2019-02-26T16:33:51.034Z,31.40
2019-02-26T16:38:11.712Z,31.50
2019-02-26T16:42:30.521Z,31.60
2019-02-26T16:46:48.792Z,31.80
2019-02-26T16:51:07.170Z,31.80
2019-02-26T16:55:26.553Z,31.90
2019-02-26T16:59:44.775Z,31.90
2019-02-26T17:04:03.127Z,32.00
2019-02-26T17:08:21.228Z,32.00
2019-02-26T17:12:39.430Z,32.10
2019-02-26T17:16:57.603Z,32.10
2019-02-26T17:21:15.983Z,32.30
2019-02-26T17:25:34.361Z,32.40
2019-02-26T17:29:52.584Z,32.40
2019-02-26T17:34:11.154Z,32.50
2019-02-26T17:38:30.390Z,32.60
2019-02-26T17:42:51.199Z,32.80
2019-02-26T17:47:09.397Z,33.10
2019-02-26T17:51:27.663Z,33.10
2019-02-26T17:55:46.962Z,33.20
2019-02-26T18:00:17.999Z,33.30
2019-02-26T18:04:38.773Z,33.30
2019-02-26T18:08:57.039Z,33.40
2019-02-26T18:13:20.463Z,33.50
2019-02-26T18:17:37.972Z,33.60
2019-02-26T18:21:58.415Z,33.80
2019-02-26T18:26:19.075Z,34.40
2019-02-26T18:30:39.762Z,34.10
2019-02-26T18:34:59.913Z,34.10
2019-02-26T18:39:22.326Z,34.10
2019-02-26T18:43:41.031Z,34.20
2019-02-26T18:47:59.244Z,34.10
2019-02-26T18:52:18.837Z,34.90
2019-02-26T18:56:39.446Z,34.30
2019-02-26T19:01:00.673Z,34.40
2019-02-26T19:05:24.275Z,34.40
2019-02-26T19:09:45.574Z,34.60
2019-02-26T19:14:11.969Z,34.60
2019-02-26T19:18:35.744Z,35.20
2019-02-26T19:22:58.868Z,34.70
2019-02-26T19:27:20.132Z,34.90
2019-02-26T19:31:42.424Z,34.80
2019-02-26T19:36:02.611Z,34.80
2019-02-26T19:40:24.437Z,34.80
2019-02-26T19:44:45.101Z,35.00
2019-02-26T19:49:06.314Z,35.00
2019-02-26T19:53:26.181Z,35.10
2019-02-26T19:57:44.975Z,35.20
2019-02-26T20:02:03.151Z,35.30
2019-02-26T20:06:23.594Z,35.40
2019-02-26T20:10:41.705Z,35.40
2019-02-26T20:15:00.320Z,35.60
2019-02-26T20:19:20.311Z,35.60
2019-02-26T20:23:41.841Z,35.50
2019-02-26T20:28:05.349Z,35.70
2019-02-26T20:32:20.610Z,35.90
2019-02-26T20:36:38.923Z,35.90
2019-02-26T20:40:57.454Z,36.10
2019-02-26T20:45:18.769Z,36.30
2019-02-26T20:49:37.660Z,36.30
2019-02-26T20:53:55.892Z,36.40
2019-02-26T20:58:14.122Z,36.50
2019-02-26T21:02:32.210Z,36.50
2019-02-26T21:06:51.402Z,36.60
2019-02-26T21:11:10.077Z,36.60
2019-02-26T21:15:28.732Z,37.30
2019-02-26T21:19:47.067Z,36.70
2019-02-26T21:24:05.289Z,36.80
2019-02-26T21:28:23.862Z,36.80
2019-02-26T21:32:42.211Z,36.90
2019-02-26T21:37:01.983Z,36.90
2019-02-26T21:41:21.057Z,36.90
2019-02-26T21:45:39.857Z,37.00
2019-02-26T21:49:58.140Z,37.00
2019-02-26T21:54:16.275Z,37.10
2019-02-26T21:58:38.905Z,37.20
2019-02-26T22:02:58.714Z,37.20
2019-02-26T22:07:19.050Z,37.30
2019-02-26T22:11:36.903Z,37.40
2019-02-26T22:15:55.926Z,37.70
2019-02-26T22:20:22.017Z,37.60
2019-02-26T22:24:37.785Z,37.70
2019-02-26T22:28:55.518Z,37.70
2019-02-26T22:33:13.705Z,37.90
2019-02-26T22:37:32.190Z,38.20
2019-02-26T22:41:50.331Z,38.00
2019-02-26T22:46:08.626Z,38.20
2019-02-26T22:50:29.049Z,38.30
2019-02-26T22:54:48.261Z,38.30
2019-02-26T22:59:08.021Z,38.30
2019-02-26T23:03:26.490Z,38.30
2019-02-26T23:07:44.712Z,38.60
2019-02-26T23:12:05.108Z,39.20
2019-02-26T23:16:23.009Z,38.60
2019-02-26T23:20:42.808Z,38.90
2019-02-26T23:25:01.663Z,39.00
2019-02-26T23:29:21.786Z,39.00
2019-02-26T23:33:41.036Z,39.00
2019-02-26T23:38:00.021Z,39.00
2019-02-26T23:42:18.271Z,39.00
2019-02-26T23:46:36.992Z,39.20
2019-02-26T23:50:55.258Z,40.00
2019-02-26T23:55:14.054Z,40.10
2019-02-26T23:59:34.870Z,40.70
